Time;durP1;ratioP1;P1;durP2;ratioP2;P2;SDS_P1;SDS_P2;PMS_P1;PMS_P2;Temp;Humidity;BMP_temperature;BMP_pressure;BME280_temperature;BME280_humidity;BME280_pressure;Samples;Min_cycle;Max_cycle;Signal;HPM_P1;HPM_P2
2023/04/08 00:02:17;;;;;;;34.15;21.30;;;;;;;;;;5135780;27;20019;-73
2023/04/08 00:05:03;;;;;;;33.97;21.08;;;;;;;;;;5134957;27;20079;-73
2023/04/08 00:07:49;;;;;;;31.65;19.90;;;;;;;;;;5121672;27;20082;-73
2023/04/08 00:10:34;;;;;;;32.08;20.52;;;;;;;;;;5136754;27;20023;-73
2023/04/08 00:13:20;;;;;;;35.92;21.80;;;;;;;;;;5135960;27;20367;-72
2023/04/08 00:16:06;;;;;;;38.38;23.13;;;;;;;;;;5121714;27;20472;-72
2023/04/08 00:18:52;;;;;;;37.10;22.92;;;;;;;;;;5136726;27;20449;-72
2023/04/08 00:21:37;;;;;;;33.72;22.55;;;;;;;;;;5136811;27;20027;-71
2023/04/08 00:24:24;;;;;;;35.92;24.10;;;;;;;;;;5121390;27;20055;-72
2023/04/08 00:27:09;;;;;;;39.67;24.13;;;;;;;;;;5121795;27;20397;-72
2023/04/08 00:29:56;;;;;;;34.67;22.30;;;;;;;;;;5136258;27;20011;-74
2023/04/08 00:32:41;;;;;;;34.03;21.88;;;;;;;;;;5135658;27;20139;-74
2023/04/08 00:35:27;;;;;;;37.10;23.25;;;;;;;;;;5122460;27;20053;-73
2023/04/08 00:38:13;;;;;;;34.58;23.42;;;;;;;;;;5121088;27;20035;-74
2023/04/08 00:40:58;;;;;;;35.78;23.13;;;;;;;;;;5135362;27;20029;-74
2023/04/08 00:43:44;;;;;;;34.05;22.85;;;;;;;;;;5135340;27;20019;-73
2023/04/08 00:46:30;;;;;;;37.75;23.77;;;;;;;;;;5121733;27;20503;-74
2023/04/08 00:49:16;;;;;;;36.38;24.00;;;;;;;;;;5120744;27;20023;-73
2023/04/08 00:52:01;;;;;;;33.13;22.23;;;;;;;;;;5135927;27;20019;-73
2023/04/08 00:54:47;;;;;;;39.33;23.65;;;;;;;;;;5135003;27;20022;-73
2023/04/08 00:57:33;;;;;;;35.05;23.08;;;;;;;;;;5120453;27;20035;-73
2023/04/08 01:00:19;;;;;;;36.05;22.65;;;;;;;;;;5135554;27;20408;-71
2023/04/08 01:03:12;;;;;;;37.08;24.08;;;;;;;;;;5135021;27;20023;-72
2023/04/08 01:05:58;;;;;;;38.22;24.02;;;;;;;;;;5135871;27;20038;-74
2023/04/08 01:08:44;;;;;;;35.15;23.02;;;;;;;;;;5135094;27;20088;-74
2023/04/08 01:11:31;;;;;;;34.85;22.85;;;;;;;;;;5135111;27;20033;-72
2023/04/08 01:14:19;;;;;;;33.15;21.48;;;;;;;;;;5135649;27;20427;-72
2023/04/08 01:17:06;;;;;;;34.28;22.52;;;;;;;;;;5121857;27;20355;-73
2023/04/08 01:19:53;;;;;;;35.05;22.52;;;;;;;;;;5135017;27;20019;-73
2023/04/08 01:22:54;;;;;;;36.45;24.05;;;;;;;;;;5135765;27;20023;-73
2023/04/08 01:25:43;;;;;;;34.47;23.48;;;;;;;;;;5134831;27;20015;-73
2023/04/08 01:28:30;;;;;;;34.83;23.33;;;;;;;;;;5134533;27;20102;-73
2023/04/08 01:31:15;;;;;;;39.53;24.05;;;;;;;;;;5134949;27;20241;-73
2023/04/08 01:34:03;;;;;;;37.80;24.35;;;;;;;;;;5134656;27;20076;-73
2023/04/08 01:36:49;;;;;;;34.30;23.02;;;;;;;;;;5142786;27;20015;-73
2023/04/08 01:39:36;;;;;;;36.97;25.17;;;;;;;;;;5135112;27;20087;-73
2023/04/08 01:42:22;;;;;;;36.33;24.52;;;;;;;;;;5134357;27;20011;-73
2023/04/08 01:45:08;;;;;;;38.17;24.25;;;;;;;;;;5133972;27;20016;-73
2023/04/08 01:47:55;;;;;;;39.75;25.67;;;;;;;;;;5134486;27;20015;-74
2023/04/08 01:50:42;;;;;;;39.17;24.85;;;;;;;;;;5120584;27;20019;-73
2023/04/08 01:53:27;;;;;;;38.95;24.80;;;;;;;;;;5134795;27;20183;-73
2023/04/08 01:56:14;;;;;;;43.00;26.83;;;;;;;;;;5135032;28;20039;-73
2023/04/08 01:59:02;;;;;;;42.10;26.25;;;;;;;;;;5149116;28;20048;-74
2023/04/08 02:01:49;;;;;;;38.08;24.33;;;;;;;;;;5122419;28;20019;-73
2023/04/08 02:04:35;;;;;;;36.83;25.05;;;;;;;;;;5136657;28;20027;-73
2023/04/08 02:07:21;;;;;;;38.50;25.58;;;;;;;;;;5134502;28;20095;-73
2023/04/08 02:10:06;;;;;;;37.90;25.45;;;;;;;;;;5134359;28;20099;-72
2023/04/08 02:12:52;;;;;;;39.38;25.73;;;;;;;;;;5134459;28;20016;-72
2023/04/08 02:15:41;;;;;;;42.75;27.50;;;;;;;;;;5134021;28;20087;-72
2023/04/08 02:18:27;;;;;;;41.38;26.15;;;;;;;;;;5134935;28;20020;-73
2023/04/08 02:21:17;;;;;;;45.25;28.48;;;;;;;;;;5120772;28;20114;-74
2023/04/08 02:24:04;;;;;;;42.13;27.33;;;;;;;;;;5120855;28;20374;-69
2023/04/08 02:26:52;;;;;;;43.55;27.75;;;;;;;;;;5119757;27;20431;-73
2023/04/08 02:29:39;;;;;;;39.45;26.42;;;;;;;;;;5138842;27;20023;-73
2023/04/08 02:32:25;;;;;;;42.13;25.52;;;;;;;;;;5138872;27;20471;-73
2023/04/08 02:35:11;;;;;;;40.13;26.10;;;;;;;;;;5139211;27;20335;-73
2023/04/08 02:37:57;;;;;;;41.28;26.23;;;;;;;;;;5124014;27;20025;-74
2023/04/08 02:40:42;;;;;;;42.78;26.92;;;;;;;;;;5138322;27;20023;-73
2023/04/08 02:43:31;;;;;;;41.10;26.55;;;;;;;;;;5137975;27;20084;-72
2023/04/08 02:46:16;;;;;;;39.83;26.35;;;;;;;;;;5137673;27;20451;-73
2023/04/08 02:49:02;;;;;;;39.25;25.52;;;;;;;;;;5138325;27;20041;-74
2023/04/08 02:51:47;;;;;;;43.47;27.08;;;;;;;;;;5137864;27;20058;-74
2023/04/08 02:54:33;;;;;;;42.58;25.58;;;;;;;;;;5138084;27;20025;-76
2023/04/08 02:57:19;;;;;;;41.28;26.00;;;;;;;;;;5122853;27;20041;-73
2023/04/08 03:00:06;;;;;;;43.88;26.17;;;;;;;;;;5122429;27;20015;-72
2023/04/08 03:02:51;;;;;;;41.08;25.15;;;;;;;;;;5138159;27;20019;-73
2023/04/08 03:05:37;;;;;;;38.97;23.77;;;;;;;;;;5137175;27;20435;-73
2023/04/08 03:08:23;;;;;;;41.53;24.60;;;;;;;;;;5136960;27;20070;-73
2023/04/08 03:11:08;;;;;;;40.92;25.38;;;;;;;;;;5124277;27;20106;-73
2023/04/08 03:13:54;;;;;;;38.15;25.27;;;;;;;;;;5137368;27;20026;-73
2023/04/08 03:16:40;;;;;;;37.78;24.42;;;;;;;;;;5138258;27;20090;-72
2023/04/08 03:19:25;;;;;;;37.13;23.65;;;;;;;;;;5137583;27;20188;-73
2023/04/08 03:22:12;;;;;;;35.78;23.25;;;;;;;;;;5123084;27;20015;-74
2023/04/08 03:24:57;;;;;;;36.90;23.63;;;;;;;;;;5122938;27;20037;-73
2023/04/08 03:27:43;;;;;;;37.67;23.90;;;;;;;;;;5136176;27;20046;-73
2023/04/08 03:30:28;;;;;;;36.70;23.90;;;;;;;;;;5122961;27;20408;-73
2023/04/08 03:33:14;;;;;;;40.85;24.35;;;;;;;;;;5123323;27;20015;-74
2023/04/08 03:35:59;;;;;;;37.30;23.27;;;;;;;;;;5136791;27;20042;-73
2023/04/08 03:38:45;;;;;;;37.95;23.23;;;;;;;;;;5121872;27;20518;-72
2023/04/08 03:41:31;;;;;;;35.15;22.95;;;;;;;;;;5136566;27;20034;-73
2023/04/08 03:44:16;;;;;;;34.45;22.98;;;;;;;;;;5121839;27;20034;-73
2023/04/08 03:47:02;;;;;;;38.38;23.02;;;;;;;;;;5136758;27;20065;-73
2023/04/08 03:49:47;;;;;;;36.55;22.63;;;;;;;;;;5136861;27;20443;-73
2023/04/08 03:52:33;;;;;;;36.63;23.38;;;;;;;;;;5123705;27;20019;-73
2023/04/08 03:55:18;;;;;;;36.47;23.13;;;;;;;;;;5120837;27;20015;-73
2023/04/08 03:58:04;;;;;;;39.17;23.95;;;;;;;;;;5136680;27;20023;-73
2023/04/08 04:00:50;;;;;;;37.17;23.58;;;;;;;;;;5137304;27;20413;-73
2023/04/08 04:03:36;;;;;;;37.33;23.65;;;;;;;;;;5122801;27;20091;-72
2023/04/08 04:06:21;;;;;;;37.35;22.70;;;;;;;;;;5136455;27;20435;-73
2023/04/08 04:09:07;;;;;;;39.90;23.92;;;;;;;;;;5120919;27;20050;-74
2023/04/08 04:11:52;;;;;;;41.70;23.80;;;;;;;;;;5137004;27;20427;-73
2023/04/08 04:14:38;;;;;;;34.75;23.45;;;;;;;;;;5135909;27;20068;-73
2023/04/08 04:17:24;;;;;;;38.08;23.90;;;;;;;;;;5136631;27;20015;-73
2023/04/08 04:20:10;;;;;;;37.25;22.35;;;;;;;;;;5136955;27;20067;-73
2023/04/08 04:22:55;;;;;;;36.47;23.02;;;;;;;;;;5136283;27;20063;-73
2023/04/08 04:25:41;;;;;;;37.08;23.27;;;;;;;;;;5122042;27;20033;-73
2023/04/08 04:28:26;;;;;;;35.17;22.40;;;;;;;;;;5122375;27;20019;-73
2023/04/08 04:31:22;;;;;;;36.88;22.55;;;;;;;;;;5121115;27;20034;-73
2023/04/08 04:34:08;;;;;;;44.03;22.95;;;;;;;;;;5135341;27;20054;-73
2023/04/08 04:36:53;;;;;;;36.28;22.63;;;;;;;;;;5135995;27;20011;-74
2023/04/08 04:39:39;;;;;;;37.17;22.92;;;;;;;;;;5122412;27;20099;-73
2023/04/08 04:42:25;;;;;;;35.60;22.67;;;;;;;;;;5120117;27;20026;-73
2023/04/08 04:45:11;;;;;;;37.78;22.75;;;;;;;;;;5136123;27;20027;-73
2023/04/08 04:47:56;;;;;;;34.55;22.05;;;;;;;;;;5135809;27;20057;-73
2023/04/08 04:50:42;;;;;;;37.85;22.23;;;;;;;;;;5121254;27;20023;-72
2023/04/08 04:53:28;;;;;;;39.10;23.23;;;;;;;;;;5120087;27;20080;-73
2023/04/08 04:56:14;;;;;;;34.95;21.63;;;;;;;;;;5121429;27;20034;-72
2023/04/08 04:59:00;;;;;;;33.88;21.52;;;;;;;;;;5137623;27;20018;-72
2023/04/08 05:01:45;;;;;;;33.05;21.55;;;;;;;;;;5131256;27;20027;-73
2023/04/08 05:04:31;;;;;;;37.47;22.05;;;;;;;;;;5136476;27;20015;-73
2023/04/08 05:07:16;;;;;;;32.45;21.55;;;;;;;;;;5135089;27;20039;-73
2023/04/08 05:10:03;;;;;;;34.20;22.50;;;;;;;;;;5136656;27;20019;-73
2023/04/08 05:12:49;;;;;;;36.30;22.33;;;;;;;;;;5149214;27;20027;-71
2023/04/08 05:15:34;;;;;;;39.53;22.23;;;;;;;;;;5148008;27;20429;-73
2023/04/08 05:18:20;;;;;;;33.10;22.58;;;;;;;;;;5142052;27;20027;-73
2023/04/08 05:21:06;;;;;;;40.20;22.55;;;;;;;;;;5136898;27;20030;-74
2023/04/08 05:23:52;;;;;;;35.65;22.27;;;;;;;;;;5134489;27;20011;-72
2023/04/08 05:26:38;;;;;;;35.65;22.92;;;;;;;;;;5122334;27;20025;-73
2023/04/08 05:29:23;;;;;;;35.58;23.08;;;;;;;;;;5134661;27;20019;-73
2023/04/08 05:32:09;;;;;;;35.30;21.45;;;;;;;;;;5135123;27;20015;-73
2023/04/08 05:34:55;;;;;;;34.15;22.67;;;;;;;;;;5135350;27;20045;-73
2023/04/08 05:37:40;;;;;;;33.08;20.98;;;;;;;;;;5134036;27;20094;-73
2023/04/08 05:40:26;;;;;;;32.78;20.45;;;;;;;;;;5134920;27;20026;-75
2023/04/08 05:43:12;;;;;;;32.92;21.33;;;;;;;;;;5122661;27;20044;-73
2023/04/08 05:45:57;;;;;;;31.85;21.02;;;;;;;;;;5145406;27;20031;-73
2023/04/08 05:48:43;;;;;;;34.53;21.63;;;;;;;;;;5135655;27;20051;-73
2023/04/08 05:51:28;;;;;;;37.28;21.95;;;;;;;;;;5134707;27;20104;-73
2023/04/08 05:54:14;;;;;;;34.15;20.33;;;;;;;;;;5120495;27;20447;-73
2023/04/08 05:56:59;;;;;;;37.08;22.73;;;;;;;;;;5134553;28;20118;-73
2023/04/08 05:59:45;;;;;;;36.47;21.77;;;;;;;;;;5135105;28;20126;-73
2023/04/08 06:02:31;;;;;;;33.05;21.58;;;;;;;;;;5135296;27;20035;-73
2023/04/08 06:05:17;;;;;;;33.65;21.13;;;;;;;;;;5138503;27;20030;-73
2023/04/08 06:08:03;;;;;;;33.40;21.40;;;;;;;;;;5137882;27;20115;-73
2023/04/08 06:10:49;;;;;;;31.90;20.65;;;;;;;;;;5139089;27;20034;-74
2023/04/08 06:13:36;;;;;;;32.10;20.80;;;;;;;;;;5138633;27;20033;-74
2023/04/08 06:16:21;;;;;;;31.95;20.50;;;;;;;;;;5123075;27;20083;-72
2023/04/08 06:19:07;;;;;;;37.10;21.02;;;;;;;;;;5138744;27;20015;-75
2023/04/08 06:21:57;;;;;;;30.40;19.88;;;;;;;;;;5125199;27;20455;-73
2023/04/08 06:24:43;;;;;;;32.05;20.40;;;;;;;;;;5138946;27;20115;-74
2023/04/08 06:27:28;;;;;;;36.75;21.15;;;;;;;;;;5138404;27;20026;-72
2023/04/08 06:30:15;;;;;;;33.08;21.13;;;;;;;;;;5138309;27;20019;-73
2023/04/08 06:33:00;;;;;;;31.88;20.67;;;;;;;;;;5138277;27;20023;-73
2023/04/08 06:35:46;;;;;;;36.45;21.25;;;;;;;;;;5138227;27;20025;-72
2023/04/08 06:38:32;;;;;;;37.05;19.95;;;;;;;;;;5124068;27;20515;-72
2023/04/08 06:41:17;;;;;;;30.25;19.60;;;;;;;;;;5138370;27;20023;-74
2023/04/08 06:44:03;;;;;;;35.00;19.25;;;;;;;;;;5138151;27;20023;-73
2023/04/08 06:46:49;;;;;;;26.38;18.55;;;;;;;;;;5138493;27;20019;-72
2023/04/08 06:49:36;;;;;;;28.65;19.10;;;;;;;;;;5138164;27;20114;-73
2023/04/08 06:52:21;;;;;;;25.77;17.10;;;;;;;;;;5137511;27;20041;-73
2023/04/08 06:55:07;;;;;;;29.05;19.17;;;;;;;;;;5137600;27;20022;-74
2023/04/08 06:57:53;;;;;;;27.02;18.30;;;;;;;;;;5138094;27;20076;-74
2023/04/08 07:00:38;;;;;;;25.73;17.42;;;;;;;;;;5138023;27;20390;-74
2023/04/08 07:03:24;;;;;;;28.25;18.60;;;;;;;;;;5137315;27;20035;-72
2023/04/08 07:06:09;;;;;;;27.00;17.92;;;;;;;;;;5137778;27;20023;-73
2023/04/08 07:08:55;;;;;;;30.42;19.65;;;;;;;;;;5123447;27;20043;-73
2023/04/08 07:11:41;;;;;;;28.70;20.98;;;;;;;;;;5137506;27;20419;-74
2023/04/08 07:14:26;;;;;;;27.45;19.20;;;;;;;;;;5136617;27;20427;-74
2023/04/08 07:17:12;;;;;;;30.15;18.83;;;;;;;;;;5137751;27;20019;-74
2023/04/08 07:19:58;;;;;;;26.38;18.85;;;;;;;;;;5137443;27;20030;-73
2023/04/08 07:22:43;;;;;;;26.25;17.88;;;;;;;;;;5123055;27;20023;-73
2023/04/08 07:25:29;;;;;;;34.03;19.15;;;;;;;;;;5136895;27;20023;-72
2023/04/08 07:28:15;;;;;;;29.15;18.70;;;;;;;;;;5136831;27;20030;-73
2023/04/08 07:31:13;;;;;;;27.95;19.17;;;;;;;;;;5137349;27;20019;-73
2023/04/08 07:33:59;;;;;;;26.40;18.77;;;;;;;;;;5122386;27;20019;-74
2023/04/08 07:36:45;;;;;;;27.50;18.02;;;;;;;;;;5137919;27;20074;-73
2023/04/08 07:39:30;;;;;;;25.98;17.98;;;;;;;;;;5137330;27;20088;-75
2023/04/08 07:42:17;;;;;;;27.15;18.10;;;;;;;;;;5136283;27;20015;-74
2023/04/08 07:45:03;;;;;;;25.27;18.55;;;;;;;;;;5121439;27;20029;-74
2023/04/08 07:47:48;;;;;;;25.40;18.63;;;;;;;;;;5137843;27;20015;-74
2023/04/08 07:50:36;;;;;;;27.65;18.83;;;;;;;;;;5121510;27;20084;-73
2023/04/08 07:53:25;;;;;;;25.00;17.40;;;;;;;;;;5122625;27;20030;-74
2023/04/08 07:56:12;;;;;;;29.02;18.40;;;;;;;;;;5137451;27;20053;-74
2023/04/08 07:58:57;;;;;;;27.17;18.20;;;;;;;;;;5122736;27;20054;-74
2023/04/08 08:01:43;;;;;;;33.22;17.45;;;;;;;;;;5136829;27;20019;-73
2023/04/08 08:04:28;;;;;;;30.17;18.55;;;;;;;;;;5136568;27;20019;-73
2023/04/08 08:07:14;;;;;;;26.48;18.27;;;;;;;;;;5137134;27;20047;-71
2023/04/08 08:10:00;;;;;;;29.95;19.52;;;;;;;;;;5123455;27;20019;-74
2023/04/08 08:12:45;;;;;;;26.80;18.25;;;;;;;;;;5129803;27;20042;-73
2023/04/08 08:15:31;;;;;;;31.02;18.92;;;;;;;;;;5137652;27;20026;-73
2023/04/08 08:18:17;;;;;;;26.20;18.88;;;;;;;;;;5142647;27;20011;-72
2023/04/08 08:21:02;;;;;;;27.45;17.60;;;;;;;;;;5137518;27;20321;-74
2023/04/08 08:23:48;;;;;;;30.27;18.98;;;;;;;;;;5122171;27;20027;-74
2023/04/08 08:26:35;;;;;;;30.10;18.65;;;;;;;;;;5122889;27;20026;-73
2023/04/08 08:29:21;;;;;;;26.27;18.40;;;;;;;;;;5136197;27;20486;-74
2023/04/08 08:32:07;;;;;;;32.50;18.25;;;;;;;;;;5136203;27;20034;-74
2023/04/08 08:34:53;;;;;;;32.75;18.58;;;;;;;;;;5136665;27;20019;-74
2023/04/08 08:37:39;;;;;;;29.85;18.45;;;;;;;;;;5137124;27;20304;-73
2023/04/08 08:40:24;;;;;;;27.25;18.17;;;;;;;;;;5156357;27;20034;-74
2023/04/08 08:43:10;;;;;;;25.67;17.15;;;;;;;;;;5135649;27;20038;-74
2023/04/08 08:45:56;;;;;;;28.17;18.80;;;;;;;;;;5135193;27;20027;-74
2023/04/08 08:48:42;;;;;;;31.85;18.65;;;;;;;;;;5123191;27;20031;-74
2023/04/08 08:51:27;;;;;;;30.17;18.85;;;;;;;;;;5121059;27;20097;-74
2023/04/08 08:54:14;;;;;;;29.65;18.67;;;;;;;;;;5135551;27;20019;-75
2023/04/08 08:56:59;;;;;;;25.45;17.65;;;;;;;;;;5137285;27;20106;-74
2023/04/08 08:59:46;;;;;;;30.65;19.00;;;;;;;;;;5135849;27;20465;-73
2023/04/08 09:02:32;;;;;;;24.83;17.98;;;;;;;;;;5136260;27;20450;-74
2023/04/08 09:05:18;;;;;;;26.88;18.30;;;;;;;;;;5121255;27;20084;-73
2023/04/08 09:08:03;;;;;;;25.38;18.38;;;;;;;;;;5134916;27;20047;-73
2023/04/08 09:10:49;;;;;;;27.30;18.80;;;;;;;;;;5135688;27;20095;-73
2023/04/08 09:13:36;;;;;;;36.28;18.02;;;;;;;;;;5121360;27;20054;-73
2023/04/08 09:16:22;;;;;;;27.85;18.20;;;;;;;;;;5121350;27;20030;-72
2023/04/08 09:19:12;;;;;;;25.75;17.55;;;;;;;;;;5119971;27;20019;-73
2023/04/08 09:22:07;;;;;;;25.13;17.55;;;;;;;;;;5120651;27;20020;-73
2023/04/08 09:24:53;;;;;;;28.23;17.05;;;;;;;;;;5134709;27;20088;-72
2023/04/08 09:27:39;;;;;;;23.27;17.15;;;;;;;;;;5135307;27;20023;-72
2023/04/08 09:30:26;;;;;;;27.10;16.75;;;;;;;;;;5119748;27;20034;-73
2023/04/08 09:33:11;;;;;;;28.00;16.90;;;;;;;;;;5121236;27;20034;-73
2023/04/08 09:35:57;;;;;;;29.45;16.45;;;;;;;;;;5120992;27;20096;-72
2023/04/08 09:38:43;;;;;;;25.33;16.65;;;;;;;;;;5119097;27;20015;-74
2023/04/08 09:41:32;;;;;;;23.30;16.25;;;;;;;;;;5135363;27;20030;-73
2023/04/08 09:44:19;;;;;;;21.63;16.63;;;;;;;;;;5134941;27;20083;-73
2023/04/08 09:47:05;;;;;;;24.35;16.73;;;;;;;;;;5134898;27;20031;-73
2023/04/08 09:49:54;;;;;;;24.35;16.65;;;;;;;;;;5135178;27;20019;-73
2023/04/08 09:52:53;;;;;;;23.33;16.95;;;;;;;;;;5134885;27;20026;-74
2023/04/08 09:55:42;;;;;;;23.90;16.08;;;;;;;;;;5120521;27;20026;-73
2023/04/08 09:58:31;;;;;;;24.23;15.82;;;;;;;;;;5135953;27;20015;-73
2023/04/08 10:01:21;;;;;;;23.15;16.45;;;;;;;;;;5119037;28;20019;-73
2023/04/08 10:04:13;;;;;;;21.02;16.27;;;;;;;;;;5120795;28;20034;-72
2023/04/08 10:07:00;;;;;;;24.48;16.10;;;;;;;;;;5134582;28;20374;-74
2023/04/08 10:09:46;;;;;;;28.20;16.17;;;;;;;;;;5120927;28;20015;-73
2023/04/08 10:12:32;;;;;;;20.00;15.68;;;;;;;;;;5134266;28;20039;-72
2023/04/08 10:15:28;;;;;;;24.02;16.20;;;;;;;;;;5134526;28;20015;-72
2023/04/08 10:18:17;;;;;;;20.55;15.55;;;;;;;;;;5134479;28;20027;-73
2023/04/08 10:21:02;;;;;;;21.83;15.40;;;;;;;;;;5118978;28;20016;-73
2023/04/08 10:24:05;;;;;;;20.52;15.07;;;;;;;;;;5133703;28;20034;-72
2023/04/08 10:26:50;;;;;;;24.20;15.98;;;;;;;;;;5133839;28;20019;-73
2023/04/08 10:29:36;;;;;;;21.75;16.58;;;;;;;;;;5134574;28;20023;-73
2023/04/08 10:32:28;;;;;;;24.17;16.67;;;;;;;;;;5133972;28;20019;-73
2023/04/08 10:35:14;;;;;;;20.35;15.80;;;;;;;;;;5134903;28;20019;-73
2023/04/08 10:38:00;;;;;;;22.92;15.35;;;;;;;;;;5133995;28;20027;-73
2023/04/08 10:40:46;;;;;;;28.50;17.15;;;;;;;;;;5134241;28;20044;-72
2023/04/08 10:43:33;;;;;;;22.02;15.88;;;;;;;;;;5135236;28;20433;-73
2023/04/08 10:46:19;;;;;;;18.88;14.35;;;;;;;;;;5134032;28;20023;-73
2023/04/08 10:49:05;;;;;;;21.33;14.65;;;;;;;;;;5135062;27;20058;-72
2023/04/08 10:51:51;;;;;;;20.70;15.15;;;;;;;;;;5138667;27;20144;-73
2023/04/08 10:54:37;;;;;;;22.50;14.77;;;;;;;;;;5137343;27;20042;-74
2023/04/08 10:57:24;;;;;;;19.10;15.15;;;;;;;;;;5138053;27;20077;-73
2023/04/08 11:00:10;;;;;;;20.17;14.25;;;;;;;;;;5138285;27;20023;-74
2023/04/08 11:02:59;;;;;;;19.52;14.10;;;;;;;;;;5123175;27;20026;-73
2023/04/08 11:05:45;;;;;;;18.88;13.90;;;;;;;;;;5138605;27;20115;-72
2023/04/08 11:08:31;;;;;;;16.60;14.02;;;;;;;;;;5123547;27;20146;-72
2023/04/08 11:11:17;;;;;;;21.63;14.70;;;;;;;;;;5137906;27;20038;-72
2023/04/08 11:14:04;;;;;;;27.52;14.32;;;;;;;;;;5137784;27;20466;-72
2023/04/08 11:16:50;;;;;;;23.02;13.95;;;;;;;;;;5137856;27;20027;-73
2023/04/08 11:19:36;;;;;;;17.83;14.60;;;;;;;;;;5137617;27;20012;-72
2023/04/08 11:22:22;;;;;;;16.73;13.23;;;;;;;;;;5137414;27;20023;-72
2023/04/08 11:25:09;;;;;;;18.27;13.77;;;;;;;;;;5138172;27;20034;-72
2023/04/08 11:27:54;;;;;;;17.90;14.07;;;;;;;;;;5123850;27;20030;-73
2023/04/08 11:30:40;;;;;;;18.73;14.35;;;;;;;;;;5138066;27;20469;-72
2023/04/08 11:33:26;;;;;;;23.35;14.40;;;;;;;;;;5138985;27;20031;-72
2023/04/08 11:36:12;;;;;;;21.90;14.75;;;;;;;;;;5137140;27;20011;-73
2023/04/08 11:38:57;;;;;;;19.35;14.20;;;;;;;;;;5138530;27;20016;-72
2023/04/08 11:41:43;;;;;;;20.73;14.65;;;;;;;;;;5137293;27;20015;-73
2023/04/08 11:44:29;;;;;;;25.08;15.07;;;;;;;;;;5137234;27;20358;-73
2023/04/08 11:47:15;;;;;;;16.65;13.43;;;;;;;;;;5138169;27;20038;-72
2023/04/08 11:50:01;;;;;;;17.27;13.82;;;;;;;;;;5138950;27;20029;-73
2023/04/08 11:52:48;;;;;;;18.13;13.65;;;;;;;;;;5137662;27;20027;-73
2023/04/08 11:55:33;;;;;;;17.13;13.43;;;;;;;;;;5137501;27;20019;-73
2023/04/08 11:58:19;;;;;;;24.15;15.02;;;;;;;;;;5123814;27;20456;-72
2023/04/08 12:01:04;;;;;;;18.10;14.05;;;;;;;;;;5136321;27;20023;-73
2023/04/08 12:03:54;;;;;;;20.58;14.30;;;;;;;;;;5137407;27;20416;-72
2023/04/08 12:06:42;;;;;;;19.13;13.65;;;;;;;;;;5136309;27;20031;-73
2023/04/08 12:09:28;;;;;;;18.27;13.57;;;;;;;;;;5136594;27;20037;-73
2023/04/08 12:12:13;;;;;;;19.65;12.80;;;;;;;;;;5147600;27;20019;-72
2023/04/08 12:14:59;;;;;;;17.35;13.27;;;;;;;;;;5150867;27;20011;-71
2023/04/08 12:17:45;;;;;;;21.55;14.43;;;;;;;;;;5139035;27;20016;-73
2023/04/08 12:20:30;;;;;;;22.40;13.55;;;;;;;;;;5136972;27;20036;-73
2023/04/08 12:23:16;;;;;;;20.13;13.73;;;;;;;;;;5136995;27;20031;-72
2023/04/08 12:26:01;;;;;;;18.95;14.50;;;;;;;;;;5121619;27;20049;-74
2023/04/08 12:28:47;;;;;;;20.85;14.07;;;;;;;;;;5136541;27;20392;-73
2023/04/08 12:31:32;;;;;;;18.10;13.60;;;;;;;;;;5136871;27;20091;-72
2023/04/08 12:34:19;;;;;;;20.45;14.40;;;;;;;;;;5136792;27;20430;-74
2023/04/08 12:37:04;;;;;;;19.90;15.25;;;;;;;;;;5136144;27;20039;-73
2023/04/08 12:39:51;;;;;;;18.25;13.45;;;;;;;;;;5136084;27;20377;-73
2023/04/08 12:42:36;;;;;;;18.20;13.75;;;;;;;;;;5122718;27;20066;-73
2023/04/08 12:45:22;;;;;;;18.17;13.80;;;;;;;;;;5121653;27;20023;-73
2023/04/08 12:48:07;;;;;;;20.60;13.93;;;;;;;;;;5136035;27;20034;-74
2023/04/08 12:50:53;;;;;;;19.85;14.20;;;;;;;;;;5136111;27;20019;-74
2023/04/08 12:53:39;;;;;;;16.83;13.60;;;;;;;;;;5135402;27;20023;-74
2023/04/08 12:56:24;;;;;;;17.38;13.10;;;;;;;;;;5135891;27;20119;-74
2023/04/08 12:59:10;;;;;;;17.73;13.10;;;;;;;;;;5136533;27;20019;-73
2023/04/08 13:02:12;;;;;;;26.35;18.23;;;;;;;;;;5135325;27;20423;-75
2023/04/08 13:04:58;;;;;;;25.85;18.92;;;;;;;;;;5121775;27;20023;-73
2023/04/08 13:07:44;;;;;;;22.27;16.83;;;;;;;;;;5120969;27;20047;-74
2023/04/08 13:10:30;;;;;;;19.55;14.45;;;;;;;;;;5135591;27;20038;-73
2023/04/08 13:13:15;;;;;;;24.48;14.63;;;;;;;;;;5135216;27;20026;-73
2023/04/08 13:16:04;;;;;;;19.20;13.70;;;;;;;;;;5136402;27;20011;-73
2023/04/08 13:18:51;;;;;;;20.55;14.32;;;;;;;;;;5135989;27;20127;-73
2023/04/08 13:21:36;;;;;;;20.98;14.10;;;;;;;;;;5135330;27;20023;-73
2023/04/08 13:24:22;;;;;;;21.98;13.88;;;;;;;;;;5135498;27;20023;-73
2023/04/08 13:27:08;;;;;;;20.95;14.30;;;;;;;;;;5135334;27;20019;-73
2023/04/08 13:29:53;;;;;;;17.70;13.73;;;;;;;;;;5120833;27;20015;-73
2023/04/08 13:32:39;;;;;;;19.23;14.32;;;;;;;;;;5134374;27;20115;-73
2023/04/08 13:35:25;;;;;;;20.85;14.38;;;;;;;;;;5134511;27;20434;-72
2023/04/08 13:38:11;;;;;;;17.33;13.75;;;;;;;;;;5135601;27;20027;-73
2023/04/08 13:40:57;;;;;;;18.10;14.07;;;;;;;;;;5136083;27;20023;-73
2023/04/08 13:43:42;;;;;;;18.40;13.40;;;;;;;;;;5119798;27;20087;-73
2023/04/08 13:46:28;;;;;;;16.05;13.48;;;;;;;;;;5121140;27;20439;-73
2023/04/08 13:49:14;;;;;;;23.88;14.13;;;;;;;;;;5134460;27;20034;-74
2023/04/08 13:52:00;;;;;;;23.67;14.20;;;;;;;;;;5134689;27;20049;-73
2023/04/08 13:54:46;;;;;;;20.75;12.25;;;;;;;;;;5119374;27;20038;-73
2023/04/08 13:57:31;;;;;;;17.00;11.98;;;;;;;;;;5134728;27;20015;-75
2023/04/08 14:00:17;;;;;;;18.95;11.90;;;;;;;;;;5134857;27;20015;-72
2023/04/08 14:03:03;;;;;;;21.45;12.10;;;;;;;;;;5134805;28;20034;-73
2023/04/08 14:05:49;;;;;;;19.38;12.82;;;;;;;;;;5134502;28;20015;-74
2023/04/08 14:08:35;;;;;;;17.15;12.82;;;;;;;;;;5133545;28;20055;-73
2023/04/08 14:11:21;;;;;;;17.17;11.88;;;;;;;;;;5135020;28;20367;-73
2023/04/08 14:14:06;;;;;;;16.48;12.43;;;;;;;;;;5135133;28;20024;-73
2023/04/08 14:16:52;;;;;;;22.92;12.70;;;;;;;;;;5120345;28;20012;-74
2023/04/08 14:19:38;;;;;;;19.58;12.98;;;;;;;;;;5134502;28;20015;-73
2023/04/08 14:22:23;;;;;;;18.08;13.90;;;;;;;;;;5134010;27;20029;-73
2023/04/08 14:25:09;;;;;;;19.70;14.75;;;;;;;;;;5137400;27;20359;-74
2023/04/08 14:27:55;;;;;;;21.65;15.43;;;;;;;;;;5138273;27;20104;-73
2023/04/08 14:30:41;;;;;;;21.23;15.25;;;;;;;;;;5138171;27;20354;-73
2023/04/08 14:33:27;;;;;;;19.77;14.93;;;;;;;;;;5122762;27;20427;-73
2023/04/08 14:36:13;;;;;;;21.25;15.82;;;;;;;;;;5124651;27;20015;-73
2023/04/08 14:38:59;;;;;;;22.02;15.75;;;;;;;;;;5137455;27;20026;-73
2023/04/08 14:41:46;;;;;;;20.40;14.85;;;;;;;;;;5124428;27;20046;-73
2023/04/08 14:44:32;;;;;;;21.67;15.45;;;;;;;;;;5123892;27;20046;-72
2023/04/08 14:47:17;;;;;;;20.35;15.05;;;;;;;;;;5137601;27;20023;-73
2023/04/08 14:50:03;;;;;;;18.88;14.88;;;;;;;;;;5137676;27;20401;-73
2023/04/08 14:52:49;;;;;;;19.55;14.90;;;;;;;;;;5138360;27;20030;-73
2023/04/08 14:55:34;;;;;;;21.98;15.80;;;;;;;;;;5156331;27;20539;-71
2023/04/08 14:58:20;;;;;;;20.98;14.73;;;;;;;;;;5143245;27;20011;-74
2023/04/08 15:01:05;;;;;;;17.35;13.18;;;;;;;;;;5141048;27;20548;-72
2023/04/08 15:03:51;;;;;;;20.10;13.57;;;;;;;;;;5138211;27;20062;-75
2023/04/08 15:06:39;;;;;;;16.90;13.02;;;;;;;;;;5122230;27;20365;-73
2023/04/08 15:09:24;;;;;;;19.58;12.95;;;;;;;;;;5137848;27;20034;-74
2023/04/08 15:12:10;;;;;;;16.15;12.77;;;;;;;;;;5137673;27;20030;-73
2023/04/08 15:14:55;;;;;;;16.23;12.20;;;;;;;;;;5137500;27;20015;-73
2023/04/08 15:17:41;;;;;;;15.95;12.27;;;;;;;;;;5138541;27;20019;-71
2023/04/08 15:20:27;;;;;;;26.35;13.77;;;;;;;;;;5133314;27;20031;-72
2023/04/08 15:23:12;;;;;;;16.30;12.85;;;;;;;;;;5148082;27;20454;-73
2023/04/08 15:25:58;;;;;;;18.08;13.27;;;;;;;;;;5149496;27;20019;-74
2023/04/08 15:28:44;;;;;;;20.60;12.23;;;;;;;;;;5144545;27;20446;-76
2023/04/08 15:31:30;;;;;;;20.58;13.10;;;;;;;;;;5138988;27;20015;-74
2023/04/08 15:34:16;;;;;;;19.67;12.35;;;;;;;;;;5138265;27;20443;-72
2023/04/08 15:37:01;;;;;;;21.10;12.20;;;;;;;;;;5137869;27;20093;-73
2023/04/08 15:39:53;;;;;;;20.60;13.20;;;;;;;;;;5123293;27;20015;-74
2023/04/08 15:42:41;;;;;;;21.38;13.77;;;;;;;;;;5137430;27;20019;-73
2023/04/08 15:45:27;;;;;;;21.10;13.13;;;;;;;;;;5137226;27;20033;-73
2023/04/08 15:48:13;;;;;;;19.02;13.88;;;;;;;;;;5136952;27;20034;-74
2023/04/08 15:51:05;;;;;;;24.33;15.50;;;;;;;;;;5123322;27;20071;-72
2023/04/08 15:53:50;;;;;;;23.63;16.23;;;;;;;;;;5136994;27;20034;-73
2023/04/08 15:56:36;;;;;;;23.55;16.65;;;;;;;;;;5136839;27;20066;-73
2023/04/08 15:59:22;;;;;;;31.67;21.17;;;;;;;;;;5121880;27;20088;-73
2023/04/08 16:02:07;;;;;;;34.30;20.45;;;;;;;;;;5136778;27;20455;-74
2023/04/08 16:04:53;;;;;;;28.17;19.13;;;;;;;;;;5122986;27;20031;-73
2023/04/08 16:07:41;;;;;;;36.33;19.65;;;;;;;;;;5135864;27;20047;-73